Time;durP1;ratioP1;P1;durP2;ratioP2;P2;SDS_P1;SDS_P2;PMS_P1;PMS_P2;Temp;Humidity;BMP_temperature;BMP_pressure;BME280_temperature;BME280_humidity;BME280_pressure;Samples;Min_cycle;Max_cycle;Signal;HPM_P1;HPM_P2
2024/02/16 00:02:01;;;;;;;5.93;2.85;;;;;;;;;;5063644;28;20047;-81
2024/02/16 00:04:28;;;;;;;3.72;2.25;;;;;;;;;;5063860;28;20060;-81
2024/02/16 00:06:55;;;;;;;4.28;2.35;;;;;;;;;;5064086;28;20055;-82
2024/02/16 00:09:22;;;;;;;3.97;2.92;;;;;;;;;;5041354;28;20092;-81
2024/02/16 00:11:50;;;;;;;4.13;2.83;;;;;;;;;;5056627;28;20059;-81
2024/02/16 00:14:17;;;;;;;4.45;2.78;;;;;;;;;;5021524;28;20140;-81
2024/02/16 00:16:44;;;;;;;5.43;3.75;;;;;;;;;;5025827;28;20053;-81
2024/02/16 00:19:11;;;;;;;5.10;3.95;;;;;;;;;;5025196;28;20056;-82
2024/02/16 00:21:41;;;;;;;5.50;4.00;;;;;;;;;;5046563;28;20052;-80
2024/02/16 00:24:09;;;;;;;8.50;4.22;;;;;;;;;;5058739;28;20045;-81
2024/02/16 00:26:36;;;;;;;4.63;3.38;;;;;;;;;;5026765;28;20135;-81
2024/02/16 00:29:03;;;;;;;5.35;3.20;;;;;;;;;;5064312;28;20045;-81
2024/02/16 00:31:31;;;;;;;3.58;3.00;;;;;;;;;;5061455;28;20029;-81
2024/02/16 00:33:58;;;;;;;7.22;2.80;;;;;;;;;;5046165;28;20037;-81
2024/02/16 00:36:26;;;;;;;3.13;2.67;;;;;;;;;;5047319;28;20064;-81
2024/02/16 00:38:53;;;;;;;3.90;3.20;;;;;;;;;;5043761;28;20508;-81
2024/02/16 00:41:20;;;;;;;7.97;2.80;;;;;;;;;;5029236;28;20303;-81
2024/02/16 00:43:47;;;;;;;4.93;2.88;;;;;;;;;;5028429;28;20056;-81
2024/02/16 00:46:13;;;;;;;5.43;2.90;;;;;;;;;;5055207;28;20052;-80
2024/02/16 00:48:40;;;;;;;3.67;2.78;;;;;;;;;;5046534;28;20048;-81
2024/02/16 00:51:07;;;;;;;4.07;2.58;;;;;;;;;;5025024;28;20552;-81
2024/02/16 00:53:34;;;;;;;6.43;3.20;;;;;;;;;;5017004;28;20424;-83
2024/02/16 00:56:00;;;;;;;5.47;3.00;;;;;;;;;;5035242;28;20477;-81
2024/02/16 00:58:27;;;;;;;4.35;2.78;;;;;;;;;;5039271;28;20055;-81
2024/02/16 01:00:54;;;;;;;2.65;2.25;;;;;;;;;;5022286;28;20072;-80
2024/02/16 01:03:22;;;;;;;5.10;3.20;;;;;;;;;;5019782;28;20053;-81
2024/02/16 01:05:49;;;;;;;5.50;3.03;;;;;;;;;;5020462;28;20053;-80
2024/02/16 01:08:16;;;;;;;4.50;2.65;;;;;;;;;;5052664;28;20057;-80
2024/02/16 01:10:42;;;;;;;8.25;3.50;;;;;;;;;;5036786;28;20098;-81
2024/02/16 01:13:10;;;;;;;4.43;2.45;;;;;;;;;;5054340;28;20049;-79
2024/02/16 01:15:37;;;;;;;6.22;3.50;;;;;;;;;;5036698;28;20060;-79
2024/02/16 01:18:04;;;;;;;5.40;3.00;;;;;;;;;;5018812;28;20045;-80
2024/02/16 01:20:31;;;;;;;6.35;3.03;;;;;;;;;;5036140;28;20422;-80
2024/02/16 01:22:58;;;;;;;6.07;2.72;;;;;;;;;;5036192;28;20075;-81
2024/02/16 01:25:24;;;;;;;5.55;3.03;;;;;;;;;;5036688;28;20045;-81
2024/02/16 01:27:51;;;;;;;4.13;2.65;;;;;;;;;;5036439;28;20095;-80
2024/02/16 01:30:19;;;;;;;5.65;3.15;;;;;;;;;;5033964;28;20052;-80
2024/02/16 01:32:47;;;;;;;6.22;3.20;;;;;;;;;;5037686;28;20072;-82
2024/02/16 01:35:16;;;;;;;3.28;2.90;;;;;;;;;;5035144;28;20791;-79
2024/02/16 01:37:43;;;;;;;5.68;2.80;;;;;;;;;;5035330;28;20048;-80
2024/02/16 01:40:17;;;;;;;3.58;2.65;;;;;;;;;;5031782;28;20060;-79
2024/02/16 01:42:44;;;;;;;4.18;2.85;;;;;;;;;;5015880;28;20137;-80
2024/02/16 01:45:13;;;;;;;4.20;2.22;;;;;;;;;;5034245;28;20068;-80
2024/02/16 01:47:42;;;;;;;3.67;2.67;;;;;;;;;;5023495;28;20045;-79
2024/02/16 01:50:10;;;;;;;5.28;2.78;;;;;;;;;;5054624;28;20584;-80
2024/02/16 01:52:36;;;;;;;3.90;2.50;;;;;;;;;;5037979;28;20057;-79
2024/02/16 01:55:04;;;;;;;4.18;2.85;;;;;;;;;;5037491;28;20048;-81
2024/02/16 01:57:31;;;;;;;4.63;2.92;;;;;;;;;;5036976;28;20095;-80
2024/02/16 01:59:58;;;;;;;3.33;2.58;;;;;;;;;;5034006;28;20529;-80
2024/02/16 02:02:25;;;;;;;3.25;2.15;;;;;;;;;;5050942;28;20047;-81
2024/02/16 02:04:52;;;;;;;4.43;2.03;;;;;;;;;;5036990;28;20044;-81
2024/02/16 02:07:20;;;;;;;3.25;2.00;;;;;;;;;;5054917;28;20049;-81
2024/02/16 02:09:47;;;;;;;7.47;2.35;;;;;;;;;;5020639;28;20045;-81
2024/02/16 02:12:13;;;;;;;2.67;2.10;;;;;;;;;;5053280;28;20120;-81
2024/02/16 02:14:41;;;;;;;7.03;2.30;;;;;;;;;;5053180;28;20055;-81
2024/02/16 02:17:08;;;;;;;6.53;2.58;;;;;;;;;;5021991;28;20542;-81
2024/02/16 02:19:35;;;;;;;5.10;1.63;;;;;;;;;;5037571;28;20127;-81
2024/02/16 02:22:02;;;;;;;2.85;1.80;;;;;;;;;;5019470;28;20056;-81
2024/02/16 02:24:28;;;;;;;3.45;2.38;;;;;;;;;;5038521;28;20453;-81
2024/02/16 02:26:57;;;;;;;4.93;2.17;;;;;;;;;;5037057;28;20068;-81
2024/02/16 02:29:24;;;;;;;3.58;2.15;;;;;;;;;;5021230;28;20506;-81
2024/02/16 02:31:50;;;;;;;4.63;2.33;;;;;;;;;;5020569;28;20556;-81
2024/02/16 02:34:17;;;;;;;2.83;2.20;;;;;;;;;;5037894;28;20060;-81
2024/02/16 02:36:44;;;;;;;3.00;2.20;;;;;;;;;;5023603;28;20511;-81
2024/02/16 02:39:10;;;;;;;7.90;2.90;;;;;;;;;;5038474;28;20528;-81
2024/02/16 02:41:37;;;;;;;4.25;2.05;;;;;;;;;;5052559;28;20041;-82
2024/02/16 02:44:04;;;;;;;3.60;2.08;;;;;;;;;;5055529;28;20100;-82
2024/02/16 02:46:31;;;;;;;2.55;1.95;;;;;;;;;;5038119;28;20060;-81
2024/02/16 02:48:58;;;;;;;6.28;2.72;;;;;;;;;;5021196;28;20051;-82
2024/02/16 02:51:49;;;;;;;3.55;2.03;;;;;;;;;;5052664;28;20049;-81
2024/02/16 02:54:16;;;;;;;3.72;2.05;;;;;;;;;;5045419;28;20057;-82
2024/02/16 02:56:43;;;;;;;3.85;2.22;;;;;;;;;;5021453;28;20481;-82
2024/02/16 02:59:10;;;;;;;3.42;2.42;;;;;;;;;;5021910;28;20142;-82
2024/02/16 03:01:37;;;;;;;2.65;2.03;;;;;;;;;;5037940;28;20053;-82
2024/02/16 03:04:04;;;;;;;2.97;2.10;;;;;;;;;;5037500;28;20068;-82
2024/02/16 03:06:31;;;;;;;4.15;2.40;;;;;;;;;;5022173;28;20060;-82
2024/02/16 03:08:57;;;;;;;2.92;1.98;;;;;;;;;;5041242;28;20430;-82
2024/02/16 03:11:24;;;;;;;2.95;1.90;;;;;;;;;;5040749;28;20132;-82
2024/02/16 03:13:51;;;;;;;3.35;2.10;;;;;;;;;;5042194;28;20049;-82
2024/02/16 03:16:17;;;;;;;2.72;2.10;;;;;;;;;;5025816;28;20045;-81
2024/02/16 03:18:44;;;;;;;4.15;2.90;;;;;;;;;;5041971;28;20045;-83
2024/02/16 03:21:17;;;;;;;4.47;2.15;;;;;;;;;;5041632;28;20053;-81
2024/02/16 03:23:44;;;;;;;3.08;2.70;;;;;;;;;;5042603;28;20052;-82
2024/02/16 03:26:18;;;;;;;2.95;1.88;;;;;;;;;;5025601;28;20103;-82
2024/02/16 03:28:48;;;;;;;4.00;1.98;;;;;;;;;;5042380;28;20049;-82
2024/02/16 03:31:18;;;;;;;3.95;1.73;;;;;;;;;;5039328;28;20057;-83
2024/02/16 03:33:45;;;;;;;3.83;2.30;;;;;;;;;;5044456;28;20049;-83
2024/02/16 03:36:13;;;;;;;3.10;2.20;;;;;;;;;;5043725;28;20049;-82
2024/02/16 03:38:41;;;;;;;2.78;2.00;;;;;;;;;;5027167;28;20049;-83
2024/02/16 03:41:07;;;;;;;3.25;2.13;;;;;;;;;;5026735;28;20049;-81
2024/02/16 03:43:34;;;;;;;4.32;2.28;;;;;;;;;;5042551;28;20053;-83
2024/02/16 03:46:01;;;;;;;3.08;2.00;;;;;;;;;;5046762;28;20049;-83
2024/02/16 03:48:28;;;;;;;4.18;2.00;;;;;;;;;;5047591;28;20063;-82
2024/02/16 03:50:55;;;;;;;4.15;2.13;;;;;;;;;;5028659;28;20545;-83
2024/02/16 03:53:22;;;;;;;3.08;2.33;;;;;;;;;;5029719;28;20045;-82
2024/02/16 03:55:50;;;;;;;4.55;2.40;;;;;;;;;;5025871;28;20052;-82
2024/02/16 03:58:16;;;;;;;5.22;2.42;;;;;;;;;;5042329;28;20057;-82
2024/02/16 04:00:43;;;;;;;3.65;2.45;;;;;;;;;;5039880;28;20499;-82
2024/02/16 04:03:10;;;;;;;3.58;2.10;;;;;;;;;;5041675;28;20090;-83
2024/02/16 04:05:40;;;;;;;3.55;2.10;;;;;;;;;;5043194;28;20057;-84
2024/02/16 04:08:07;;;;;;;4.10;2.28;;;;;;;;;;5043935;28;20534;-83
2024/02/16 04:10:34;;;;;;;5.00;2.38;;;;;;;;;;5025649;28;20490;-83
2024/02/16 04:13:01;;;;;;;3.67;2.45;;;;;;;;;;5028282;28;20053;-83
2024/02/16 04:15:28;;;;;;;2.58;1.98;;;;;;;;;;5044749;28;20102;-83
2024/02/16 04:17:55;;;;;;;3.10;2.03;;;;;;;;;;5027796;28;20057;-83
2024/02/16 04:20:22;;;;;;;4.20;2.22;;;;;;;;;;5025733;28;20049;-83
2024/02/16 04:22:49;;;;;;;4.95;2.00;;;;;;;;;;5026440;28;20049;-83
2024/02/16 04:25:16;;;;;;;4.63;2.17;;;;;;;;;;5042201;28;20053;-83
2024/02/16 04:27:42;;;;;;;5.32;2.17;;;;;;;;;;5042109;28;20465;-83
2024/02/16 04:30:09;;;;;;;3.72;2.28;;;;;;;;;;5040106;28;20080;-83
2024/02/16 04:32:36;;;;;;;3.17;2.33;;;;;;;;;;5042533;28;20057;-82
2024/02/16 04:35:04;;;;;;;4.82;2.30;;;;;;;;;;5026114;28;20081;-82
2024/02/16 04:37:30;;;;;;;3.58;2.40;;;;;;;;;;5033925;28;20053;-83
2024/02/16 04:39:57;;;;;;;3.88;2.33;;;;;;;;;;5044911;28;20118;-83
2024/02/16 04:42:24;;;;;;;3.95;2.83;;;;;;;;;;5043008;28;20052;-83
2024/02/16 04:44:51;;;;;;;5.00;2.75;;;;;;;;;;5060677;28;20049;-83
2024/02/16 04:47:17;;;;;;;6.15;2.80;;;;;;;;;;5060490;28;20049;-83
2024/02/16 04:49:44;;;;;;;5.65;2.58;;;;;;;;;;5059841;28;20079;-83
2024/02/16 04:52:11;;;;;;;5.60;2.95;;;;;;;;;;5056730;28;20041;-81
2024/02/16 04:54:40;;;;;;;5.10;3.55;;;;;;;;;;5046729;28;20049;-82
2024/02/16 04:57:07;;;;;;;4.25;2.67;;;;;;;;;;5047457;28;20052;-82
2024/02/16 04:59:34;;;;;;;6.07;3.45;;;;;;;;;;5024605;28;20053;-81
2024/02/16 05:02:00;;;;;;;4.63;3.67;;;;;;;;;;5037559;28;20068;-82
2024/02/16 05:04:27;;;;;;;4.75;3.10;;;;;;;;;;5019534;28;20092;-78
2024/02/16 05:06:57;;;;;;;6.05;3.50;;;;;;;;;;5034224;28;20078;-77
2024/02/16 05:09:26;;;;;;;5.20;3.22;;;;;;;;;;5035656;28;20045;-81
2024/02/16 05:11:53;;;;;;;6.35;3.10;;;;;;;;;;5034329;28;20495;-81
2024/02/16 05:14:20;;;;;;;4.45;3.10;;;;;;;;;;5029571;28;20049;-81
2024/02/16 05:16:47;;;;;;;3.88;3.20;;;;;;;;;;5039937;28;20049;-81
2024/02/16 05:19:14;;;;;;;5.78;3.63;;;;;;;;;;5058055;28;20052;-82
2024/02/16 05:21:41;;;;;;;3.85;3.03;;;;;;;;;;5025028;28;20056;-83
2024/02/16 05:24:07;;;;;;;4.60;3.22;;;;;;;;;;5040340;28;20064;-80
2024/02/16 05:26:34;;;;;;;5.68;3.17;;;;;;;;;;5038604;28;20056;-82
2024/02/16 05:29:01;;;;;;;6.20;3.33;;;;;;;;;;5038045;28;20045;-82
2024/02/16 05:31:28;;;;;;;5.82;2.95;;;;;;;;;;5038987;28;20056;-81
2024/02/16 05:33:56;;;;;;;5.57;3.10;;;;;;;;;;5039053;28;20056;-81
2024/02/16 05:36:30;;;;;;;6.00;3.00;;;;;;;;;;5040401;28;20107;-81
2024/02/16 05:39:05;;;;;;;4.55;3.47;;;;;;;;;;5024437;28;21306;-83
2024/02/16 05:41:33;;;;;;;7.53;2.95;;;;;;;;;;5039837;28;20048;-83
2024/02/16 05:43:59;;;;;;;4.28;2.92;;;;;;;;;;5023380;28;20099;-82
2024/02/16 05:46:26;;;;;;;4.68;3.00;;;;;;;;;;5039897;28;20060;-82
2024/02/16 05:48:53;;;;;;;3.97;2.80;;;;;;;;;;5057737;28;20045;-82
2024/02/16 05:51:20;;;;;;;5.88;3.03;;;;;;;;;;5023438;28;20708;-82
2024/02/16 05:53:47;;;;;;;3.80;3.05;;;;;;;;;;5039447;28;20053;-83
2024/02/16 05:56:14;;;;;;;4.15;2.65;;;;;;;;;;5038549;28;20128;-82
2024/02/16 05:58:40;;;;;;;5.32;3.30;;;;;;;;;;5036912;28;20102;-79
2024/02/16 06:01:10;;;;;;;5.93;3.35;;;;;;;;;;5020999;28;20069;-81
2024/02/16 06:03:36;;;;;;;4.22;2.85;;;;;;;;;;5037908;28;20076;-81
2024/02/16 06:06:03;;;;;;;4.95;2.85;;;;;;;;;;5052691;28;20081;-81
2024/02/16 06:08:30;;;;;;;4.38;2.80;;;;;;;;;;5040284;28;20498;-83
2024/02/16 06:10:57;;;;;;;4.10;2.75;;;;;;;;;;5023284;28;20041;-81
2024/02/16 06:13:23;;;;;;;3.22;2.63;;;;;;;;;;5039499;28;20422;-82
2024/02/16 06:15:50;;;;;;;4.40;2.65;;;;;;;;;;5022825;28;20052;-82
2024/02/16 06:18:17;;;;;;;3.40;2.70;;;;;;;;;;5038993;28;20052;-82
2024/02/16 06:20:44;;;;;;;3.42;3.10;;;;;;;;;;5023321;28;20052;-83
2024/02/16 06:23:10;;;;;;;3.63;2.40;;;;;;;;;;5057134;28;20053;-82
2024/02/16 06:25:37;;;;;;;3.35;2.55;;;;;;;;;;5039709;28;20051;-84
2024/02/16 06:28:04;;;;;;;3.75;3.08;;;;;;;;;;5039272;28;20061;-83
2024/02/16 06:30:31;;;;;;;4.07;2.40;;;;;;;;;;5039538;28;20644;-82
2024/02/16 06:32:58;;;;;;;3.58;2.35;;;;;;;;;;5039139;28;20538;-85
2024/02/16 06:35:25;;;;;;;4.15;3.05;;;;;;;;;;5039127;28;20537;-79
2024/02/16 06:37:53;;;;;;;4.47;2.75;;;;;;;;;;5038077;28;20517;-76
2024/02/16 06:40:20;;;;;;;3.20;2.30;;;;;;;;;;5033676;28;20049;-77
2024/02/16 06:42:47;;;;;;;5.03;2.53;;;;;;;;;;5031305;28;20102;-77
2024/02/16 06:45:14;;;;;;;4.63;3.03;;;;;;;;;;5049773;28;20072;-77
2024/02/16 06:47:41;;;;;;;6.07;3.17;;;;;;;;;;5031673;28;20061;-77
2024/02/16 06:50:08;;;;;;;3.65;1.95;;;;;;;;;;5031316;28;20053;-76
2024/02/16 06:52:34;;;;;;;4.53;2.55;;;;;;;;;;5015097;28;20622;-75
2024/02/16 06:55:02;;;;;;;4.45;2.70;;;;;;;;;;5031561;28;20135;-76
2024/02/16 06:57:28;;;;;;;4.30;2.42;;;;;;;;;;5031230;28;20465;-76
2024/02/16 06:59:57;;;;;;;4.90;2.50;;;;;;;;;;5023151;28;20062;-75
2024/02/16 07:02:25;;;;;;;3.60;2.33;;;;;;;;;;5015304;28;20053;-76
2024/02/16 07:04:51;;;;;;;6.78;2.60;;;;;;;;;;5015172;28;20782;-75
2024/02/16 07:07:18;;;;;;;6.20;2.90;;;;;;;;;;5031025;28;20048;-76
2024/02/16 07:09:45;;;;;;;4.95;2.13;;;;;;;;;;5016599;28;20051;-76
2024/02/16 07:12:12;;;;;;;3.50;2.50;;;;;;;;;;5048915;28;20114;-76
2024/02/16 07:14:39;;;;;;;4.75;2.30;;;;;;;;;;5014969;28;20513;-77
2024/02/16 07:17:09;;;;;;;3.97;2.35;;;;;;;;;;5013846;28;20061;-76
2024/02/16 07:19:37;;;;;;;5.28;3.58;;;;;;;;;;5015838;28;20048;-78
2024/02/16 07:22:06;;;;;;;3.05;2.75;;;;;;;;;;5017071;28;20049;-76
2024/02/16 07:24:34;;;;;;;7.18;2.80;;;;;;;;;;5031402;28;20049;-77
2024/02/16 07:27:01;;;;;;;4.50;2.83;;;;;;;;;;5014792;28;20772;-75
2024/02/16 07:29:28;;;;;;;4.00;2.58;;;;;;;;;;5014752;28;20553;-76
2024/02/16 07:31:56;;;;;;;4.47;2.30;;;;;;;;;;5017674;28;20055;-80
2024/02/16 07:34:23;;;;;;;4.25;2.08;;;;;;;;;;5034274;28;20057;-79
2024/02/16 07:36:50;;;;;;;4.35;2.40;;;;;;;;;;5015160;28;20065;-77
2024/02/16 07:39:17;;;;;;;5.20;2.30;;;;;;;;;;5031237;28;20056;-77
2024/02/16 07:41:43;;;;;;;6.57;2.55;;;;;;;;;;5014953;28;20045;-77
2024/02/16 07:44:10;;;;;;;8.68;2.40;;;;;;;;;;5030284;28;20053;-78
2024/02/16 07:46:39;;;;;;;9.07;2.78;;;;;;;;;;5015550;28;20056;-77
2024/02/16 07:49:06;;;;;;;17.00;3.55;;;;;;;;;;5029281;28;20053;-78
2024/02/16 07:51:33;;;;;;;8.98;3.22;;;;;;;;;;5032008;28;20044;-75
2024/02/16 07:54:00;;;;;;;4.40;3.10;;;;;;;;;;5049956;28;20422;-74
2024/02/16 07:56:27;;;;;;;7.18;3.13;;;;;;;;;;5017560;28;20053;-78
2024/02/16 07:58:54;;;;;;;15.02;3.50;;;;;;;;;;5033957;28;20506;-79
2024/02/16 08:01:21;;;;;;;25.58;4.45;;;;;;;;;;5018061;28;20591;-79
2024/02/16 08:03:48;;;;;;;10.13;3.30;;;;;;;;;;5034410;28;20041;-80
2024/02/16 08:06:16;;;;;;;5.47;2.75;;;;;;;;;;5018579;28;20634;-78
2024/02/16 08:08:43;;;;;;;4.38;2.88;;;;;;;;;;5033888;28;20053;-78
2024/02/16 08:11:09;;;;;;;4.60;3.00;;;;;;;;;;5036033;28;20057;-79
2024/02/16 08:13:36;;;;;;;4.40;2.83;;;;;;;;;;5035181;28;20411;-76
2024/02/16 08:16:06;;;;;;;4.40;2.60;;;;;;;;;;5051992;28;20056;-76
2024/02/16 08:18:34;;;;;;;4.80;3.15;;;;;;;;;;5034170;28;20052;-80
2024/02/16 08:21:01;;;;;;;3.55;2.92;;;;;;;;;;5021201;28;20056;-80
2024/02/16 08:23:28;;;;;;;9.82;3.90;;;;;;;;;;5017116;28;20045;-74
2024/02/16 08:25:55;;;;;;;5.00;3.00;;;;;;;;;;5034388;28;20049;-75
2024/02/16 08:28:21;;;;;;;7.28;4.85;;;;;;;;;;5051828;28;20057;-74
2024/02/16 08:30:48;;;;;;;4.97;3.22;;;;;;;;;;5052063;28;20044;-75
2024/02/16 08:33:15;;;;;;;5.40;2.90;;;;;;;;;;5051925;28;20052;-76
2024/02/16 08:35:42;;;;;;;5.57;2.85;;;;;;;;;;5025786;28;20076;-74
2024/02/16 08:38:10;;;;;;;4.90;2.97;;;;;;;;;;5047743;28;20076;-75
2024/02/16 08:40:41;;;;;;;5.20;2.90;;;;;;;;;;5034080;28;20519;-75
2024/02/16 08:43:08;;;;;;;11.40;3.97;;;;;;;;;;5032924;28;20399;-75
2024/02/16 08:45:34;;;;;;;7.70;2.85;;;;;;;;;;5035363;28;20048;-75
2024/02/16 08:48:03;;;;;;;8.35;2.95;;;;;;;;;;5024862;28;20059;-76
2024/02/16 08:50:31;;;;;;;5.53;2.20;;;;;;;;;;5029626;28;20064;-74
2024/02/16 08:52:58;;;;;;;5.53;2.85;;;;;;;;;;5033557;28;20049;-73
2024/02/16 08:55:37;;;;;;;6.10;2.65;;;;;;;;;;5032890;28;20110;-74
2024/02/16 08:58:08;;;;;;;4.18;2.25;;;;;;;;;;5035295;28;20073;-75
2024/02/16 09:00:35;;;;;;;4.07;2.58;;;;;;;;;;5012872;28;20098;-75
2024/02/16 09:03:02;;;;;;;6.65;2.50;;;;;;;;;;5033351;28;20071;-74
2024/02/16 09:05:29;;;;;;;3.42;2.63;;;;;;;;;;5032235;28;20051;-75
2024/02/16 09:07:56;;;;;;;5.90;2.97;;;;;;;;;;5032934;28;20052;-75
2024/02/16 09:10:23;;;;;;;3.28;2.35;;;;;;;;;;5031823;28;20049;-74
2024/02/16 09:12:51;;;;;;;5.95;2.45;;;;;;;;;;5031027;28;20045;-75
2024/02/16 09:15:18;;;;;;;6.40;2.40;;;;;;;;;;5032400;28;20087;-74
2024/02/16 09:17:45;;;;;;;6.53;2.58;;;;;;;;;;5016324;28;20545;-74
2024/02/16 09:20:12;;;;;;;5.32;2.78;;;;;;;;;;5032599;28;20048;-74
2024/02/16 09:22:40;;;;;;;6.05;2.92;;;;;;;;;;5029491;28;20511;-74
2024/02/16 09:25:14;;;;;;;3.85;2.53;;;;;;;;;;5050245;28;20557;-74
2024/02/16 09:27:44;;;;;;;3.75;2.38;;;;;;;;;;5032519;28;20045;-74
2024/02/16 09:30:12;;;;;;;5.60;2.63;;;;;;;;;;5011474;28;20479;-75
2024/02/16 09:32:40;;;;;;;3.47;2.17;;;;;;;;;;5010765;28;20045;-75
2024/02/16 09:35:07;;;;;;;4.70;2.70;;;;;;;;;;5032768;28;20056;-75
2024/02/16 09:37:34;;;;;;;4.82;2.25;;;;;;;;;;5032583;28;20087;-74
2024/02/16 09:40:03;;;;;;;7.72;2.65;;;;;;;;;;5014489;28;20091;-74
2024/02/16 09:42:30;;;;;;;4.43;2.08;;;;;;;;;;5016284;28;20053;-74
2024/02/16 09:44:57;;;;;;;2.92;1.70;;;;;;;;;;5032337;28;20045;-74
2024/02/16 09:47:25;;;;;;;4.32;2.20;;;;;;;;;;5014801;28;20052;-74
2024/02/16 09:49:52;;;;;;;6.18;2.28;;;;;;;;;;5031691;28;20045;-74
2024/02/16 09:52:19;;;;;;;3.40;1.92;;;;;;;;;;5016363;28;20041;-74
2024/02/16 09:54:46;;;;;;;4.28;2.60;;;;;;;;;;5043220;28;20093;-73
2024/02/16 09:57:16;;;;;;;5.57;2.90;;;;;;;;;;5039148;28;20059;-74
2024/02/16 09:59:43;;;;;;;8.65;2.65;;;;;;;;;;5056459;28;20049;-74
2024/02/16 10:02:10;;;;;;;5.72;2.15;;;;;;;;;;5039821;28;20052;-74
2024/02/16 10:04:37;;;;;;;2.95;2.00;;;;;;;;;;5035736;28;20048;-74
2024/02/16 10:07:05;;;;;;;4.30;2.40;;;;;;;;;;5050601;28;20049;-75
2024/02/16 10:09:38;;;;;;;5.45;2.60;;;;;;;;;;5031982;28;20053;-77
2024/02/16 10:12:05;;;;;;;4.15;2.35;;;;;;;;;;5027860;28;20041;-76
2024/02/16 10:14:32;;;;;;;3.45;2.38;;;;;;;;;;5032170;28;20052;-77
2024/02/16 10:17:07;;;;;;;7.93;3.00;;;;;;;;;;5030870;28;20433;-77
2024/02/16 10:19:39;;;;;;;8.23;2.65;;;;;;;;;;5015822;28;20056;-77
2024/02/16 10:22:12;;;;;;;7.28;2.45;;;;;;;;;;5031962;28;20099;-77
2024/02/16 10:24:40;;;;;;;4.30;2.40;;;;;;;;;;5013306;28;20048;-77
2024/02/16 10:27:16;;;;;;;4.82;2.60;;;;;;;;;;5048234;28;20060;-77
2024/02/16 10:29:50;;;;;;;6.40;3.00;;;;;;;;;;5027367;28;20491;-77
2024/02/16 10:32:17;;;;;;;6.18;2.47;;;;;;;;;;5007563;28;20083;-77
2024/02/16 10:34:44;;;;;;;7.70;2.90;;;;;;;;;;5031858;28;20048;-77
2024/02/16 10:37:11;;;;;;;4.60;2.45;;;;;;;;;;5007877;28;20052;-77
2024/02/16 10:39:39;;;;;;;6.60;3.10;;;;;;;;;;5014287;28;20076;-77
2024/02/16 10:42:06;;;;;;;6.70;2.78;;;;;;;;;;5006225;28;20053;-77
2024/02/16 10:44:33;;;;;;;5.63;2.88;;;;;;;;;;5031620;28;20092;-77
2024/02/16 10:47:00;;;;;;;6.68;3.10;;;;;;;;;;5030872;28;20049;-77
2024/02/16 10:49:26;;;;;;;9.23;3.28;;;;;;;;;;5049912;28;20053;-77
2024/02/16 10:51:57;;;;;;;12.07;4.63;;;;;;;;;;5029100;28;20416;-77
2024/02/16 10:54:27;;;;;;;6.78;3.03;;;;;;;;;;5032037;28;20045;-78
2024/02/16 10:56:54;;;;;;;4.40;2.70;;;;;;;;;;5049353;28;20195;-77
2024/02/16 10:59:21;;;;;;;4.32;2.67;;;;;;;;;;5029167;28;20052;-77
2024/02/16 11:01:48;;;;;;;7.20;3.10;;;;;;;;;;5033258;28;20077;-77
2024/02/16 11:04:16;;;;;;;7.85;2.97;;;;;;;;;;5032933;28;20469;-77
2024/02/16 11:07:00;;;;;;;6.30;2.70;;;;;;;;;;5023106;28;20053;-77
2024/02/16 11:09:28;;;;;;;3.42;2.33;;;;;;;;;;5043389;28;20068;-77
2024/02/16 11:11:58;;;;;;;4.13;2.78;;;;;;;;;;5040973;28;20040;-77
2024/02/16 11:14:33;;;;;;;4.38;2.72;;;;;;;;;;5053732;28;20041;-78
2024/02/16 11:17:00;;;;;;;4.55;2.42;;;;;;;;;;5037555;28;20053;-77
2024/02/16 11:19:27;;;;;;;3.45;2.13;;;;;;;;;;5056276;28;20052;-77
2024/02/16 11:22:04;;;;;;;4.88;2.40;;;;;;;;;;5070875;28;20040;-77
2024/02/16 11:24:32;;;;;;;7.65;2.60;;;;;;;;;;5036843;28;20063;-77
2024/02/16 11:27:03;;;;;;;4.18;2.38;;;;;;;;;;5033571;28;20041;-77
2024/02/16 11:29:34;;;;;;;4.72;2.25;;;;;;;;;;5018161;28;20073;-78
2024/02/16 11:32:02;;;;;;;3.05;2.10;;;;;;;;;;5017646;28;20045;-77
2024/02/16 11:34:29;;;;;;;4.45;2.17;;;;;;;;;;5035294;28;20522;-77
2024/02/16 11:37:03;;;;;;;4.07;2.20;;;;;;;;;;5034405;28;20114;-78
2024/02/16 11:39:35;;;;;;;3.72;2.13;;;;;;;;;;5019049;28;20095;-78
2024/02/16 11:42:02;;;;;;;3.80;1.80;;;;;;;;;;5009823;28;20057;-78
2024/02/16 11:44:31;;;;;;;3.38;1.88;;;;;;;;;;5034756;28;20049;-78
2024/02/16 11:46:58;;;;;;;4.82;2.45;;;;;;;;;;5017882;28;20077;-77
2024/02/16 11:49:26;;;;;;;7.00;2.30;;;;;;;;;;5017446;28;20518;-77
2024/02/16 11:51:53;;;;;;;4.20;2.05;;;;;;;;;;5017042;28;20569;-79
2024/02/16 11:54:19;;;;;;;4.38;2.33;;;;;;;;;;5034787;28;20538;-77
2024/02/16 11:56:46;;;;;;;4.15;1.90;;;;;;;;;;5013979;28;20415;-78
2024/02/16 11:59:14;;;;;;;3.95;1.92;;;;;;;;;;5012622;28;20056;-77
2024/02/16 12:01:51;;;;;;;3.35;2.00;;;;;;;;;;5033962;28;20041;-78
2024/02/16 12:04:20;;;;;;;2.67;1.70;;;;;;;;;;5048287;28;20055;-81
2024/02/16 12:06:47;;;;;;;3.88;1.50;;;;;;;;;;5050610;28;20056;-79
2024/02/16 12:09:18;;;;;;;6.50;2.65;;;;;;;;;;5017981;28;20045;-79
2024/02/16 12:11:45;;;;;;;6.97;2.30;;;;;;;;;;5028579;28;20045;-79
2024/02/16 12:14:11;;;;;;;3.45;2.40;;;;;;;;;;5050911;28;20068;-78
2024/02/16 12:16:38;;;;;;;4.20;1.83;;;;;;;;;;5018625;28;20475;-81
2024/02/16 12:19:05;;;;;;;2.92;1.80;;;;;;;;;;5036618;28;20461;-80
2024/02/16 12:21:32;;;;;;;5.63;2.10;;;;;;;;;;5019596;28;20080;-81
2024/02/16 12:23:59;;;;;;;6.93;1.88;;;;;;;;;;5048999;28;20130;-81
2024/02/16 12:26:26;;;;;;;5.47;1.90;;;;;;;;;;5045497;28;20510;-80
2024/02/16 12:28:52;;;;;;;3.35;1.80;;;;;;;;;;5052443;28;20052;-80
2024/02/16 12:31:20;;;;;;;6.43;2.38;;;;;;;;;;5034808;28;20041;-80
2024/02/16 12:33:47;;;;;;;5.50;2.17;;;;;;;;;;5019222;28;20053;-78
2024/02/16 12:36:14;;;;;;;5.57;2.47;;;;;;;;;;5027286;28;20064;-78
2024/02/16 12:38:41;;;;;;;2.38;1.92;;;;;;;;;;5034035;28;20049;-78
2024/02/16 12:41:08;;;;;;;3.90;1.88;;;;;;;;;;5033296;28;20076;-80
2024/02/16 12:43:34;;;;;;;4.05;2.20;;;;;;;;;;5035205;28;20057;-78
2024/02/16 12:46:03;;;;;;;2.45;1.75;;;;;;;;;;5033742;28;20049;-77
2024/02/16 12:48:30;;;;;;;4.68;2.55;;;;;;;;;;5017618;28;20130;-77
2024/02/16 12:50:58;;;;;;;9.00;2.10;;;;;;;;;;5033596;28;20451;-77
2024/02/16 12:53:28;;;;;;;3.05;2.00;;;;;;;;;;5033864;28;20048;-77
2024/02/16 12:55:55;;;;;;;7.07;1.98;;;;;;;;;;5033984;28;20095;-78
2024/02/16 12:58:22;;;;;;;4.20;2.10;;;;;;;;;;5014585;28;20052;-77
2024/02/16 13:00:49;;;;;;;3.08;2.00;;;;;;;;;;5049838;28;20045;-77
2024/02/16 13:03:16;;;;;;;5.40;1.83;;;;;;;;;;5034105;28;20060;-78
2024/02/16 13:05:43;;;;;;;6.18;2.65;;;;;;;;;;5052932;28;20049;-78
2024/02/16 13:08:10;;;;;;;6.25;2.83;;;;;;;;;;5034041;28;20049;-77
2024/02/16 13:10:37;;;;;;;78.68;6.22;;;;;;;;;;5050071;28;20095;-78
2024/02/16 13:13:03;;;;;;;6.63;2.72;;;;;;;;;;5033654;28;20084;-77
2024/02/16 13:15:30;;;;;;;9.10;2.70;;;;;;;;;;5034672;28;20102;-77
2024/02/16 13:17:57;;;;;;;11.95;2.88;;;;;;;;;;5017425;28;20053;-78
2024/02/16 13:20:24;;;;;;;37.20;4.80;;;;;;;;;;5034039;28;20052;-78
2024/02/16 13:22:52;;;;;;;4.38;2.05;;;;;;;;;;5033854;28;20132;-78
2024/02/16 13:25:19;;;;;;;15.32;3.25;;;;;;;;;;5032224;28;20037;-78
2024/02/16 13:27:46;;;;;;;6.97;2.80;;;;;;;;;;5030256;28;20408;-78
2024/02/16 13:30:13;;;;;;;12.80;4.32;;;;;;;;;;5034808;28;20049;-79
2024/02/16 13:32:40;;;;;;;9.05;3.35;;;;;;;;;;5018550;28;20045;-79
2024/02/16 13:35:07;;;;;;;19.75;5.53;;;;;;;;;;5018514;28;20087;-78
2024/02/16 13:37:34;;;;;;;88.55;24.75;;;;;;;;;;5014229;28;20060;-79
2024/02/16 13:40:04;;;;;;;23.23;8.70;;;;;;;;;;5033829;28;20057;-76
2024/02/16 13:42:31;;;;;;;59.97;13.77;;;;;;;;;;5032729;28;20052;-79
2024/02/16 13:44:58;;;;;;;8.02;2.70;;;;;;;;;;5032799;28;20049;-79
2024/02/16 13:47:25;;;;;;;19.80;3.10;;;;;;;;;;5017415;28;20057;-79
2024/02/16 13:49:52;;;;;;;7.75;2.67;;;;;;;;;;5034031;28;20526;-80
2024/02/16 13:52:19;;;;;;;17.70;3.72;;;;;;;;;;5033544;28;20122;-78
2024/02/16 13:54:50;;;;;;;18.52;4.47;;;;;;;;;;5011900;28;20060;-78
2024/02/16 13:57:17;;;;;;;33.08;5.78;;;;;;;;;;5022534;28;20064;-79
2024/02/16 13:59:43;;;;;;;6.78;2.55;;;;;;;;;;5010813;28;20099;-79
2024/02/16 14:02:10;;;;;;;16.80;4.43;;;;;;;;;;5005602;28;20072;-78
2024/02/16 14:04:37;;;;;;;27.60;5.68;;;;;;;;;;5023906;28;20052;-79
2024/02/16 14:07:07;;;;;;;69.43;7.43;;;;;;;;;;5032175;28;20419;-79
2024/02/16 14:09:33;;;;;;;44.90;5.57;;;;;;;;;;5033258;28;20048;-79
2024/02/16 14:12:00;;;;;;;7.75;1.98;;;;;;;;;;5031035;28;20041;-79
2024/02/16 14:14:27;;;;;;;4.25;2.00;;;;;;;;;;5016409;28;20126;-78
2024/02/16 14:17:03;;;;;;;7.65;2.15;;;;;;;;;;5050898;28;20136;-78
2024/02/16 14:19:30;;;;;;;7.63;2.25;;;;;;;;;;5033399;28;20076;-78
2024/02/16 14:21:58;;;;;;;4.75;1.80;;;;;;;;;;5033459;28;20053;-78
2024/02/16 14:24:25;;;;;;;6.30;1.67;;;;;;;;;;5016965;28;20128;-78
2024/02/16 14:26:52;;;;;;;2.65;1.80;;;;;;;;;;5017122;28;20048;-78
2024/02/16 14:29:21;;;;;;;14.20;2.67;;;;;;;;;;5017578;28;20065;-78
2024/02/16 14:31:49;;;;;;;8.48;2.08;;;;;;;;;;5033437;28;20044;-78
2024/02/16 14:34:16;;;;;;;5.97;2.20;;;;;;;;;;5017142;28;20045;-78
2024/02/16 14:36:43;;;;;;;6.72;1.55;;;;;;;;;;5017059;28;20045;-78
2024/02/16 14:39:11;;;;;;;8.82;1.98;;;;;;;;;;5033020;28;20507;-78
2024/02/16 14:41:38;;;;;;;4.75;1.55;;;;;;;;;;5033398;28;20079;-78
2024/02/16 14:44:05;;;;;;;3.17;1.30;;;;;;;;;;5050641;28;20085;-79
2024/02/16 14:46:32;;;;;;;9.00;1.80;;;;;;;;;;5016802;28;20063;-78